sensor_id;sensor_type;location;lat;lon;timestamp;temperature;humidity
67799;SHT30;54596;43.216;27.904;2023-04-25T00:00:06;12.00;93.68
67799;SHT30;54596;43.216;27.904;2023-04-25T00:02:33;11.95;93.42
67799;SHT30;54596;43.216;27.904;2023-04-25T00:05:01;12.00;93.33
67799;SHT30;54596;43.216;27.904;2023-04-25T00:07:31;11.98;93.25
67799;SHT30;54596;43.216;27.904;2023-04-25T00:09:58;11.94;93.29
67799;SHT30;54596;43.216;27.904;2023-04-25T00:12:24;11.94;93.40
67799;SHT30;54596;43.216;27.904;2023-04-25T00:14:49;11.87;93.26
67799;SHT30;54596;43.216;27.904;2023-04-25T00:17:16;11.86;93.31
67799;SHT30;54596;43.216;27.904;2023-04-25T00:19:42;11.83;93.61
67799;SHT30;54596;43.216;27.904;2023-04-25T00:22:12;11.80;93.70
67799;SHT30;54596;43.216;27.904;2023-04-25T00:24:39;11.83;93.61
67799;SHT30;54596;43.216;27.904;2023-04-25T00:27:05;11.79;93.63
67799;SHT30;54596;43.216;27.904;2023-04-25T00:29:31;11.86;93.48
67799;SHT30;54596;43.216;27.904;2023-04-25T00:31:56;11.81;93.63
67799;SHT30;54596;43.216;27.904;2023-04-25T00:34:23;11.74;93.79
67799;SHT30;54596;43.216;27.904;2023-04-25T00:36:49;11.77;93.62
67799;SHT30;54596;43.216;27.904;2023-04-25T00:39:14;11.76;93.72
67799;SHT30;54596;43.216;27.904;2023-04-25T00:41:40;11.76;93.85
67799;SHT30;54596;43.216;27.904;2023-04-25T00:44:08;11.79;93.79
67799;SHT30;54596;43.216;27.904;2023-04-25T00:46:33;11.72;93.90
67799;SHT30;54596;43.216;27.904;2023-04-25T00:49:01;11.74;93.95
67799;SHT30;54596;43.216;27.904;2023-04-25T00:51:34;11.77;93.74
67799;SHT30;54596;43.216;27.904;2023-04-25T00:54:00;11.76;93.84
67799;SHT30;54596;43.216;27.904;2023-04-25T00:56:28;11.77;93.89
67799;SHT30;54596;43.216;27.904;2023-04-25T00:58:56;11.77;93.86
67799;SHT30;54596;43.216;27.904;2023-04-25T01:01:21;11.80;93.83
67799;SHT30;54596;43.216;27.904;2023-04-25T01:03:48;11.81;93.77
67799;SHT30;54596;43.216;27.904;2023-04-25T01:06:18;11.83;93.57
67799;SHT30;54596;43.216;27.904;2023-04-25T01:08:45;11.86;93.66
67799;SHT30;54596;43.216;27.904;2023-04-25T01:11:10;11.84;93.59
67799;SHT30;54596;43.216;27.904;2023-04-25T01:13:36;11.84;93.53
67799;SHT30;54596;43.216;27.904;2023-04-25T01:16:04;11.86;93.46
67799;SHT30;54596;43.216;27.904;2023-04-25T01:18:30;11.84;93.40
67799;SHT30;54596;43.216;27.904;2023-04-25T01:23:23;11.76;93.62
67799;SHT30;54596;43.216;27.904;2023-04-25T01:25:49;11.79;93.60
67799;SHT30;54596;43.216;27.904;2023-04-25T01:28:17;11.80;93.59
67799;SHT30;54596;43.216;27.904;2023-04-25T01:30:44;11.76;93.65
67799;SHT30;54596;43.216;27.904;2023-04-25T01:33:13;11.77;93.74
67799;SHT30;54596;43.216;27.904;2023-04-25T01:35:40;11.70;94.02
67799;SHT30;54596;43.216;27.904;2023-04-25T01:38:07;11.69;94.07
67799;SHT30;54596;43.216;27.904;2023-04-25T01:40:37;11.67;94.15
67799;SHT30;54596;43.216;27.904;2023-04-25T01:43:04;11.79;93.71
67799;SHT30;54596;43.216;27.904;2023-04-25T01:45:29;11.80;93.57
67799;SHT30;54596;43.216;27.904;2023-04-25T01:47:56;11.80;93.67
67799;SHT30;54596;43.216;27.904;2023-04-25T01:50:25;11.79;93.68
67799;SHT30;54596;43.216;27.904;2023-04-25T01:52:50;11.81;93.66
67799;SHT30;54596;43.216;27.904;2023-04-25T01:55:16;11.86;93.44
67799;SHT30;54596;43.216;27.904;2023-04-25T01:57:42;11.87;93.33
67799;SHT30;54596;43.216;27.904;2023-04-25T02:00:08;11.86;93.55
67799;SHT30;54596;43.216;27.904;2023-04-25T02:02:35;11.87;93.45
67799;SHT30;54596;43.216;27.904;2023-04-25T02:05:01;11.86;93.46
67799;SHT30;54596;43.216;27.904;2023-04-25T02:07:29;11.76;93.80
67799;SHT30;54596;43.216;27.904;2023-04-25T02:09:55;11.77;93.81
67799;SHT30;54596;43.216;27.904;2023-04-25T02:12:22;11.74;93.98
67799;SHT30;54596;43.216;27.904;2023-04-25T02:14:48;11.77;93.77
67799;SHT30;54596;43.216;27.904;2023-04-25T02:17:16;11.81;93.72
67799;SHT30;54596;43.216;27.904;2023-04-25T02:19:41;11.74;94.14
67799;SHT30;54596;43.216;27.904;2023-04-25T02:22:10;11.79;93.91
67799;SHT30;54596;43.216;27.904;2023-04-25T02:24:37;11.84;93.84
67799;SHT30;54596;43.216;27.904;2023-04-25T02:27:04;11.80;94.03
67799;SHT30;54596;43.216;27.904;2023-04-25T02:29:30;11.86;93.88
67799;SHT30;54596;43.216;27.904;2023-04-25T02:31:56;11.80;94.01
67799;SHT30;54596;43.216;27.904;2023-04-25T02:34:21;11.81;94.08
67799;SHT30;54596;43.216;27.904;2023-04-25T02:36:48;11.76;94.25
67799;SHT30;54596;43.216;27.904;2023-04-25T02:39:16;11.81;94.15
67799;SHT30;54596;43.216;27.904;2023-04-25T02:41:42;11.91;94.11
67799;SHT30;54596;43.216;27.904;2023-04-25T02:44:07;11.95;93.83
67799;SHT30;54596;43.216;27.904;2023-04-25T02:46:32;12.00;93.59
67799;SHT30;54596;43.216;27.904;2023-04-25T02:48:58;11.98;93.73
67799;SHT30;54596;43.216;27.904;2023-04-25T02:51:23;11.93;93.92
67799;SHT30;54596;43.216;27.904;2023-04-25T02:53:49;11.84;94.07
67799;SHT30;54596;43.216;27.904;2023-04-25T02:56:14;11.81;94.37
67799;SHT30;54596;43.216;27.904;2023-04-25T02:58:40;11.91;93.98
67799;SHT30;54596;43.216;27.904;2023-04-25T03:01:05;11.87;94.27
67799;SHT30;54596;43.216;27.904;2023-04-25T03:03:32;11.89;94.21
67799;SHT30;54596;43.216;27.904;2023-04-25T03:05:57;11.91;94.11
67799;SHT30;54596;43.216;27.904;2023-04-25T03:08:23;11.87;94.11
67799;SHT30;54596;43.216;27.904;2023-04-25T03:10:50;11.84;94.32
67799;SHT30;54596;43.216;27.904;2023-04-25T03:13:17;11.84;94.55
67799;SHT30;54596;43.216;27.904;2023-04-25T03:15:43;11.79;94.76
67799;SHT30;54596;43.216;27.904;2023-04-25T03:18:08;11.77;94.70
67799;SHT30;54596;43.216;27.904;2023-04-25T03:20:34;11.77;94.83
67799;SHT30;54596;43.216;27.904;2023-04-25T03:22:59;11.76;94.89
67799;SHT30;54596;43.216;27.904;2023-04-25T03:25:25;11.79;94.85
67799;SHT30;54596;43.216;27.904;2023-04-25T03:27:52;11.86;94.53
67799;SHT30;54596;43.216;27.904;2023-04-25T03:30:18;11.87;94.56
67799;SHT30;54596;43.216;27.904;2023-04-25T03:32:45;11.93;94.58
67799;SHT30;54596;43.216;27.904;2023-04-25T03:35:10;11.89;94.43
67799;SHT30;54596;43.216;27.904;2023-04-25T03:37:37;11.91;94.50
67799;SHT30;54596;43.216;27.904;2023-04-25T03:40:03;11.98;94.26
67799;SHT30;54596;43.216;27.904;2023-04-25T03:42:29;12.05;93.79
67799;SHT30;54596;43.216;27.904;2023-04-25T03:44:54;12.05;93.62
67799;SHT30;54596;43.216;27.904;2023-04-25T03:47:23;12.01;93.60
67799;SHT30;54596;43.216;27.904;2023-04-25T03:49:49;11.97;93.89
67799;SHT30;54596;43.216;27.904;2023-04-25T03:52:17;11.93;94.13
67799;SHT30;54596;43.216;27.904;2023-04-25T03:54:44;11.93;94.04
67799;SHT30;54596;43.216;27.904;2023-04-25T03:57:09;11.91;94.10
67799;SHT30;54596;43.216;27.904;2023-04-25T03:59:35;11.94;94.11
67799;SHT30;54596;43.216;27.904;2023-04-25T04:02:04;11.89;94.07
67799;SHT30;54596;43.216;27.904;2023-04-25T04:04:31;11.94;93.91
67799;SHT30;54596;43.216;27.904;2023-04-25T04:07:09;11.95;93.78
67799;SHT30;54596;43.216;27.904;2023-04-25T04:09:41;12.00;93.85
67799;SHT30;54596;43.216;27.904;2023-04-25T04:12:06;12.04;93.75
67799;SHT30;54596;43.216;27.904;2023-04-25T04:14:32;12.10;93.50
67799;SHT30;54596;43.216;27.904;2023-04-25T04:16:59;12.14;93.54
67799;SHT30;54596;43.216;27.904;2023-04-25T04:19:25;12.18;93.40
67799;SHT30;54596;43.216;27.904;2023-04-25T04:21:50;12.25;93.33
67799;SHT30;54596;43.216;27.904;2023-04-25T04:24:17;12.31;93.10
67799;SHT30;54596;43.216;27.904;2023-04-25T04:26:43;12.36;92.82
67799;SHT30;54596;43.216;27.904;2023-04-25T04:29:11;12.39;92.68
67799;SHT30;54596;43.216;27.904;2023-04-25T04:31:37;12.46;92.30
67799;SHT30;54596;43.216;27.904;2023-04-25T04:34:02;12.46;92.17
67799;SHT30;54596;43.216;27.904;2023-04-25T04:36:29;12.39;92.15
67799;SHT30;54596;43.216;27.904;2023-04-25T04:38:55;12.60;91.92
67799;SHT30;54596;43.216;27.904;2023-04-25T04:41:23;12.77;91.31
67799;SHT30;54596;43.216;27.904;2023-04-25T04:43:48;13.12;90.33
67799;SHT30;54596;43.216;27.904;2023-04-25T04:46:14;13.34;89.18
67799;SHT30;54596;43.216;27.904;2023-04-25T04:48:39;13.91;87.76
67799;SHT30;54596;43.216;27.904;2023-04-25T04:51:05;14.37;86.16
67799;SHT30;54596;43.216;27.904;2023-04-25T04:53:31;14.73;84.97
67799;SHT30;54596;43.216;27.904;2023-04-25T04:55:57;14.24;86.03
67799;SHT30;54596;43.216;27.904;2023-04-25T04:58:24;14.08;86.52
67799;SHT30;54596;43.216;27.904;2023-04-25T05:00:50;13.90;87.16
67799;SHT30;54596;43.216;27.904;2023-04-25T05:03:16;13.65;87.82
67799;SHT30;54596;43.216;27.904;2023-04-25T05:05:41;13.69;87.61
67799;SHT30;54596;43.216;27.904;2023-04-25T05:08:07;13.88;87.10
67799;SHT30;54596;43.216;27.904;2023-04-25T05:10:33;14.98;84.15
67799;SHT30;54596;43.216;27.904;2023-04-25T05:12:58;15.64;81.39
67799;SHT30;54596;43.216;27.904;2023-04-25T05:15:24;16.46;79.21
67799;SHT30;54596;43.216;27.904;2023-04-25T05:17:50;16.77;78.34
67799;SHT30;54596;43.216;27.904;2023-04-25T05:20:15;18.13;74.91
67799;SHT30;54596;43.216;27.904;2023-04-25T05:22:41;19.05;70.81
67799;SHT30;54596;43.216;27.904;2023-04-25T05:25:08;18.85;71.18
67799;SHT30;54596;43.216;27.904;2023-04-25T05:27:34;19.95;67.94
67799;SHT30;54596;43.216;27.904;2023-04-25T05:29:59;19.63;67.99
67799;SHT30;54596;43.216;27.904;2023-04-25T05:32:25;19.68;68.29
67799;SHT30;54596;43.216;27.904;2023-04-25T05:34:51;21.05;65.49
67799;SHT30;54596;43.216;27.904;2023-04-25T05:37:17;21.07;64.74
67799;SHT30;54596;43.216;27.904;2023-04-25T05:39:42;20.92;63.37
67799;SHT30;54596;43.216;27.904;2023-04-25T05:42:08;21.33;64.14
67799;SHT30;54596;43.216;27.904;2023-04-25T05:44:33;21.68;62.93
67799;SHT30;54596;43.216;27.904;2023-04-25T05:46:59;19.71;65.50
67799;SHT30;54596;43.216;27.904;2023-04-25T05:49:25;18.98;67.84
67799;SHT30;54596;43.216;27.904;2023-04-25T05:51:50;18.33;69.96
67799;SHT30;54596;43.216;27.904;2023-04-25T05:54:16;18.12;70.97
67799;SHT30;54596;43.216;27.904;2023-04-25T05:56:41;17.71;71.75
67799;SHT30;54596;43.216;27.904;2023-04-25T05:59:07;17.20;72.68
67799;SHT30;54596;43.216;27.904;2023-04-25T06:01:32;16.91;73.50
67799;SHT30;54596;43.216;27.904;2023-04-25T06:03:57;16.56;75.06
67799;SHT30;54596;43.216;27.904;2023-04-25T06:06:23;16.26;75.74
67799;SHT30;54596;43.216;27.904;2023-04-25T06:08:49;15.87;76.17
67799;SHT30;54596;43.216;27.904;2023-04-25T06:11:14;15.63;77.00
67799;SHT30;54596;43.216;27.904;2023-04-25T06:13:40;15.81;77.31
67799;SHT30;54596;43.216;27.904;2023-04-25T06:16:05;15.76;77.39
67799;SHT30;54596;43.216;27.904;2023-04-25T06:18:31;15.76;77.04
67799;SHT30;54596;43.216;27.904;2023-04-25T06:20:56;15.70;77.04
67799;SHT30;54596;43.216;27.904;2023-04-25T06:23:22;15.71;76.96
67799;SHT30;54596;43.216;27.904;2023-04-25T06:25:47;15.61;77.38
67799;SHT30;54596;43.216;27.904;2023-04-25T06:28:13;15.54;77.70
67799;SHT30;54596;43.216;27.904;2023-04-25T06:30:38;15.66;77.64
67799;SHT30;54596;43.216;27.904;2023-04-25T06:33:04;15.77;77.02
67799;SHT30;54596;43.216;27.904;2023-04-25T06:35:29;15.66;77.26
67799;SHT30;54596;43.216;27.904;2023-04-25T06:37:55;15.95;76.44
67799;SHT30;54596;43.216;27.904;2023-04-25T06:40:20;16.16;75.97
67799;SHT30;54596;43.216;27.904;2023-04-25T06:42:46;16.56;75.00
67799;SHT30;54596;43.216;27.904;2023-04-25T06:45:11;16.95;73.30
67799;SHT30;54596;43.216;27.904;2023-04-25T06:47:37;17.54;71.47
67799;SHT30;54596;43.216;27.904;2023-04-25T06:50:03;17.91;70.34
67799;SHT30;54596;43.216;27.904;2023-04-25T06:52:28;17.47;71.12
67799;SHT30;54596;43.216;27.904;2023-04-25T06:54:55;17.92;70.12
67799;SHT30;54596;43.216;27.904;2023-04-25T06:57:20;18.43;69.33
67799;SHT30;54596;43.216;27.904;2023-04-25T06:59:46;19.81;65.46
67799;SHT30;54596;43.216;27.904;2023-04-25T07:02:12;20.77;63.60
67799;SHT30;54596;43.216;27.904;2023-04-25T07:04:38;21.20;60.51
67799;SHT30;54596;43.216;27.904;2023-04-25T07:07:04;21.34;61.09
67799;SHT30;54596;43.216;27.904;2023-04-25T07:09:30;21.54;61.03
67799;SHT30;54596;43.216;27.904;2023-04-25T07:11:59;22.09;59.75
67799;SHT30;54596;43.216;27.904;2023-04-25T07:14:27;23.55;56.92
67799;SHT30;54596;43.216;27.904;2023-04-25T07:16:52;24.01;55.67
67799;SHT30;54596;43.216;27.904;2023-04-25T07:19:19;24.30;54.45
67799;SHT30;54596;43.216;27.904;2023-04-25T07:21:45;23.90;54.22
67799;SHT30;54596;43.216;27.904;2023-04-25T07:24:10;24.20;53.88
67799;SHT30;54596;43.216;27.904;2023-04-25T07:26:35;25.61;50.72
67799;SHT30;54596;43.216;27.904;2023-04-25T07:29:01;25.57;50.30
67799;SHT30;54596;43.216;27.904;2023-04-25T07:31:26;26.07;49.47
67799;SHT30;54596;43.216;27.904;2023-04-25T07:33:52;26.88;48.24
67799;SHT30;54596;43.216;27.904;2023-04-25T07:36:18;28.48;44.97
67799;SHT30;54596;43.216;27.904;2023-04-25T07:38:43;29.21;43.93
67799;SHT30;54596;43.216;27.904;2023-04-25T07:41:09;27.55;45.81
67799;SHT30;54596;43.216;27.904;2023-04-25T07:43:34;26.57;47.18
67799;SHT30;54596;43.216;27.904;2023-04-25T07:46:00;26.21;47.69
67799;SHT30;54596;43.216;27.904;2023-04-25T07:48:25;27.96;45.26
67799;SHT30;54596;43.216;27.904;2023-04-25T07:50:51;26.71;47.91
67799;SHT30;54596;43.216;27.904;2023-04-25T07:53:16;26.10;47.98
67799;SHT30;54596;43.216;27.904;2023-04-25T07:55:43;25.09;49.83
67799;SHT30;54596;43.216;27.904;2023-04-25T07:58:11;21.51;56.68
67799;SHT30;54596;43.216;27.904;2023-04-25T08:00:37;20.72;59.48
67799;SHT30;54596;43.216;27.904;2023-04-25T08:03:03;19.20;63.31
67799;SHT30;54596;43.216;27.904;2023-04-25T08:05:29;19.27;63.33
67799;SHT30;54596;43.216;27.904;2023-04-25T08:07:54;18.47;65.29
67799;SHT30;54596;43.216;27.904;2023-04-25T08:10:22;17.78;66.58
67799;SHT30;54596;43.216;27.904;2023-04-25T08:12:48;17.22;69.22
67799;SHT30;54596;43.216;27.904;2023-04-25T08:15:14;17.11;69.80
67799;SHT30;54596;43.216;27.904;2023-04-25T08:17:39;17.14;69.44
67799;SHT30;54596;43.216;27.904;2023-04-25T08:20:05;16.85;71.03
67799;SHT30;54596;43.216;27.904;2023-04-25T08:22:31;16.46;71.94
67799;SHT30;54596;43.216;27.904;2023-04-25T08:24:56;16.13;73.99
67799;SHT30;54596;43.216;27.904;2023-04-25T08:27:22;15.81;75.29
67799;SHT30;54596;43.216;27.904;2023-04-25T08:29:49;16.02;75.12
67799;SHT30;54596;43.216;27.904;2023-04-25T08:32:15;15.94;75.50
67799;SHT30;54596;43.216;27.904;2023-04-25T08:34:40;15.88;75.23
67799;SHT30;54596;43.216;27.904;2023-04-25T08:37:10;16.32;74.62
67799;SHT30;54596;43.216;27.904;2023-04-25T08:39:36;16.08;74.67
67799;SHT30;54596;43.216;27.904;2023-04-25T08:42:06;15.95;75.52
67799;SHT30;54596;43.216;27.904;2023-04-25T08:44:35;16.13;74.79
67799;SHT30;54596;43.216;27.904;2023-04-25T08:47:04;16.16;74.59
67799;SHT30;54596;43.216;27.904;2023-04-25T08:49:33;16.04;74.61
67799;SHT30;54596;43.216;27.904;2023-04-25T08:52:01;16.26;74.13
67799;SHT30;54596;43.216;27.904;2023-04-25T08:54:31;16.34;73.48
67799;SHT30;54596;43.216;27.904;2023-04-25T08:56:57;16.32;73.22
67799;SHT30;54596;43.216;27.904;2023-04-25T08:59:23;16.22;73.18
67799;SHT30;54596;43.216;27.904;2023-04-25T09:01:49;16.23;72.98
67799;SHT30;54596;43.216;27.904;2023-04-25T09:04:17;16.22;73.14
67799;SHT30;54596;43.216;27.904;2023-04-25T09:06:47;16.05;72.81
67799;SHT30;54596;43.216;27.904;2023-04-25T09:09:13;16.19;72.46
67799;SHT30;54596;43.216;27.904;2023-04-25T09:11:39;16.23;72.49
67799;SHT30;54596;43.216;27.904;2023-04-25T09:14:19;16.28;72.56
67799;SHT30;54596;43.216;27.904;2023-04-25T09:17:13;16.28;72.27
67799;SHT30;54596;43.216;27.904;2023-04-25T09:19:39;16.19;72.26
67799;SHT30;54596;43.216;27.904;2023-04-25T09:22:06;16.32;72.07
67799;SHT30;54596;43.216;27.904;2023-04-25T09:24:40;16.30;72.26
67799;SHT30;54596;43.216;27.904;2023-04-25T09:27:09;16.30;72.16
67799;SHT30;54596;43.216;27.904;2023-04-25T09:29:37;16.67;71.57
67799;SHT30;54596;43.216;27.904;2023-04-25T09:32:20;16.94;70.61
67799;SHT30;54596;43.216;27.904;2023-04-25T09:34:56;17.05;70.34
67799;SHT30;54596;43.216;27.904;2023-04-25T09:37:24;17.11;69.66
67799;SHT30;54596;43.216;27.904;2023-04-25T09:39:53;17.04;69.93
67799;SHT30;54596;43.216;27.904;2023-04-25T09:42:22;17.14;69.91
67799;SHT30;54596;43.216;27.904;2023-04-25T09:44:47;17.09;70.14
67799;SHT30;54596;43.216;27.904;2023-04-25T09:47:15;17.02;70.17
67799;SHT30;54596;43.216;27.904;2023-04-25T09:49:43;17.12;70.26
67799;SHT30;54596;43.216;27.904;2023-04-25T09:52:13;17.05;70.29
67799;SHT30;54596;43.216;27.904;2023-04-25T09:54:40;17.15;70.21
67799;SHT30;54596;43.216;27.904;2023-04-25T09:57:17;17.22;69.92
67799;SHT30;54596;43.216;27.904;2023-04-25T09:59:44;17.73;68.97
67799;SHT30;54596;43.216;27.904;2023-04-25T10:02:11;18.02;68.32
67799;SHT30;54596;43.216;27.904;2023-04-25T10:04:38;18.19;67.71
67799;SHT30;54596;43.216;27.904;2023-04-25T10:07:07;18.33;67.20
67799;SHT30;54596;43.216;27.904;2023-04-25T10:09:36;18.25;67.66
67799;SHT30;54596;43.216;27.904;2023-04-25T10:12:03;18.43;67.44
67799;SHT30;54596;43.216;27.904;2023-04-25T10:14:31;18.77;66.74
67799;SHT30;54596;43.216;27.904;2023-04-25T10:16:58;18.72;66.54
67799;SHT30;54596;43.216;27.904;2023-04-25T10:19:25;18.95;66.00
67799;SHT30;54596;43.216;27.904;2023-04-25T10:21:55;19.18;65.36
67799;SHT30;54596;43.216;27.904;2023-04-25T10:24:23;19.47;64.83
67799;SHT30;54596;43.216;27.904;2023-04-25T10:26:50;19.57;64.37
67799;SHT30;54596;43.216;27.904;2023-04-25T10:29:23;19.61;64.59
67799;SHT30;54596;43.216;27.904;2023-04-25T10:31:49;19.47;64.81
67799;SHT30;54596;43.216;27.904;2023-04-25T10:34:19;19.27;65.10
67799;SHT30;54596;43.216;27.904;2023-04-25T10:36:51;19.03;66.76
67799;SHT30;54596;43.216;27.904;2023-04-25T10:39:27;18.99;66.84
67799;SHT30;54596;43.216;27.904;2023-04-25T10:41:57;18.65;67.52
67799;SHT30;54596;43.216;27.904;2023-04-25T10:44:26;18.65;67.55
67799;SHT30;54596;43.216;27.904;2023-04-25T10:46:52;18.51;67.71
67799;SHT30;54596;43.216;27.904;2023-04-25T10:54:52;18.28;68.64
67799;SHT30;54596;43.216;27.904;2023-04-25T10:57:38;18.17;69.21
67799;SHT30;54596;43.216;27.904;2023-04-25T11:02:30;17.87;70.20
67799;SHT30;54596;43.216;27.904;2023-04-25T11:04:56;17.82;70.21
67799;SHT30;54596;43.216;27.904;2023-04-25T11:07:45;17.47;71.04
67799;SHT30;54596;43.216;27.904;2023-04-25T11:10:13;17.42;71.49
67799;SHT30;54596;43.216;27.904;2023-04-25T11:12:39;17.26;72.23
67799;SHT30;54596;43.216;27.904;2023-04-25T11:15:06;17.27;72.19
67799;SHT30;54596;43.216;27.904;2023-04-25T11:17:32;17.32;72.35
67799;SHT30;54596;43.216;27.904;2023-04-25T11:19:58;17.15;73.01
67799;SHT30;54596;43.216;27.904;2023-04-25T11:22:24;17.16;72.90
67799;SHT30;54596;43.216;27.904;2023-04-25T11:24:49;17.33;72.36
67799;SHT30;54596;43.216;27.904;2023-04-25T11:27:16;17.47;71.94
67799;SHT30;54596;43.216;27.904;2023-04-25T11:29:42;17.53;71.47
67799;SHT30;54596;43.216;27.904;2023-04-25T11:32:08;17.60;71.68
67799;SHT30;54596;43.216;27.904;2023-04-25T11:34:34;17.63;71.43
67799;SHT30;54596;43.216;27.904;2023-04-25T11:37:00;17.60;70.87
67799;SHT30;54596;43.216;27.904;2023-04-25T11:39:28;17.81;70.43
67799;SHT30;54596;43.216;27.904;2023-04-25T11:41:54;17.92;69.27
67799;SHT30;54596;43.216;27.904;2023-04-25T11:44:20;17.95;68.45
67799;SHT30;54596;43.216;27.904;2023-04-25T11:46:46;17.98;68.20
67799;SHT30;54596;43.216;27.904;2023-04-25T11:49:12;18.09;68.08
67799;SHT30;54596;43.216;27.904;2023-04-25T11:51:42;17.98;67.92
67799;SHT30;54596;43.216;27.904;2023-04-25T11:54:09;17.84;67.66
67799;SHT30;54596;43.216;27.904;2023-04-25T11:56:34;17.78;67.30
67799;SHT30;54596;43.216;27.904;2023-04-25T11:59:04;17.87;67.24
67799;SHT30;54596;43.216;27.904;2023-04-25T12:01:32;17.98;67.02
67799;SHT30;54596;43.216;27.904;2023-04-25T12:03:58;18.12;66.82
67799;SHT30;54596;43.216;27.904;2023-04-25T12:06:28;18.10;66.07
67799;SHT30;54596;43.216;27.904;2023-04-25T12:09:04;17.99;65.01
67799;SHT30;54596;43.216;27.904;2023-04-25T12:11:32;18.04;64.61
67799;SHT30;54596;43.216;27.904;2023-04-25T12:14:04;17.84;64.67
67799;SHT30;54596;43.216;27.904;2023-04-25T12:16:40;17.64;65.37
67799;SHT30;54596;43.216;27.904;2023-04-25T12:19:05;17.74;65.27
67799;SHT30;54596;43.216;27.904;2023-04-25T12:21:32;17.57;65.75
67799;SHT30;54596;43.216;27.904;2023-04-25T12:24:16;17.64;65.85
67799;SHT30;54596;43.216;27.904;2023-04-25T12:26:52;17.69;66.22
67799;SHT30;54596;43.216;27.904;2023-04-25T12:29:25;17.67;66.40
67799;SHT30;54596;43.216;27.904;2023-04-25T12:31:53;17.46;66.72
67799;SHT30;54596;43.216;27.904;2023-04-25T12:34:19;17.42;66.95
67799;SHT30;54596;43.216;27.904;2023-04-25T12:36:45;17.09;67.52
67799;SHT30;54596;43.216;27.904;2023-04-25T12:39:17;16.95;68.20
67799;SHT30;54596;43.216;27.904;2023-04-25T12:41:43;16.88;68.96
67799;SHT30;54596;43.216;27.904;2023-04-25T12:44:09;16.78;69.08
67799;SHT30;54596;43.216;27.904;2023-04-25T12:46:36;16.71;69.40
67799;SHT30;54596;43.216;27.904;2023-04-25T12:49:01;16.75;69.55
67799;SHT30;54596;43.216;27.904;2023-04-25T12:51:32;16.82;69.66
67799;SHT30;54596;43.216;27.904;2023-04-25T12:54:01;16.73;70.19
67799;SHT30;54596;43.216;27.904;2023-04-25T12:56:27;16.92;70.02
67799;SHT30;54596;43.216;27.904;2023-04-25T12:58:53;17.02;70.37
67799;SHT30;54596;43.216;27.904;2023-04-25T13:01:19;17.22;70.32
67799;SHT30;54596;43.216;27.904;2023-04-25T13:03:45;17.36;70.11
67799;SHT30;54596;43.216;27.904;2023-04-25T13:06:11;17.57;69.87
67799;SHT30;54596;43.216;27.904;2023-04-25T13:08:38;17.49;70.21
67799;SHT30;54596;43.216;27.904;2023-04-25T13:11:06;17.70;70.09
67799;SHT30;54596;43.216;27.904;2023-04-25T13:13:31;17.54;70.64
67799;SHT30;54596;43.216;27.904;2023-04-25T13:15:58;17.50;71.02
67799;SHT30;54596;43.216;27.904;2023-04-25T13:18:23;17.53;71.35
67799;SHT30;54596;43.216;27.904;2023-04-25T13:20:52;17.43;71.46
67799;SHT30;54596;43.216;27.904;2023-04-25T13:23:18;17.26;71.97
67799;SHT30;54596;43.216;27.904;2023-04-25T13:25:44;17.20;72.42
67799;SHT30;54596;43.216;27.904;2023-04-25T13:28:10;17.02;72.70
67799;SHT30;54596;43.216;27.904;2023-04-25T13:30:35;17.05;72.73
67799;SHT30;54596;43.216;27.904;2023-04-25T13:33:02;16.98;72.97
67799;SHT30;54596;43.216;27.904;2023-04-25T13:35:29;16.92;73.28
67799;SHT30;54596;43.216;27.904;2023-04-25T13:37:55;16.74;73.51
67799;SHT30;54596;43.216;27.904;2023-04-25T13:40:21;16.61;74.19
67799;SHT30;54596;43.216;27.904;2023-04-25T13:42:47;16.45;74.73
67799;SHT30;54596;43.216;27.904;2023-04-25T13:45:12;16.30;75.59
67799;SHT30;54596;43.216;27.904;2023-04-25T13:47:38;16.29;75.85
67799;SHT30;54596;43.216;27.904;2023-04-25T13:50:04;16.28;75.81
67799;SHT30;54596;43.216;27.904;2023-04-25T13:52:33;16.09;76.82
67799;SHT30;54596;43.216;27.904;2023-04-25T13:54:58;16.06;77.48
67799;SHT30;54596;43.216;27.904;2023-04-25T13:57:24;15.77;78.34
67799;SHT30;54596;43.216;27.904;2023-04-25T13:59:50;15.78;78.73
67799;SHT30;54596;43.216;27.904;2023-04-25T14:02:16;15.74;79.24
67799;SHT30;54596;43.216;27.904;2023-04-25T14:04:42;15.73;79.40
67799;SHT30;54596;43.216;27.904;2023-04-25T14:07:07;15.57;80.20
67799;SHT30;54596;43.216;27.904;2023-04-25T14:09:34;15.50;80.47
67799;SHT30;54596;43.216;27.904;2023-04-25T14:11:59;15.59;80.27
67799;SHT30;54596;43.216;27.904;2023-04-25T14:14:25;15.50;80.79
67799;SHT30;54596;43.216;27.904;2023-04-25T14:16:51;15.39;81.34
67799;SHT30;54596;43.216;27.904;2023-04-25T14:19:19;15.26;82.03
67799;SHT30;54596;43.216;27.904;2023-04-25T14:21:45;15.33;82.01
67799;SHT30;54596;43.216;27.904;2023-04-25T14:24:11;15.36;81.97
67799;SHT30;54596;43.216;27.904;2023-04-25T14:26:37;15.31;82.23
67799;SHT30;54596;43.216;27.904;2023-04-25T14:29:04;15.32;82.12
67799;SHT30;54596;43.216;27.904;2023-04-25T14:31:31;15.39;81.98
67799;SHT30;54596;43.216;27.904;2023-04-25T14:33:58;15.39;82.09
67799;SHT30;54596;43.216;27.904;2023-04-25T14:36:24;15.39;82.24
67799;SHT30;54596;43.216;27.904;2023-04-25T14:38:49;15.42;82.04
67799;SHT30;54596;43.216;27.904;2023-04-25T14:41:15;15.39;82.02
67799;SHT30;54596;43.216;27.904;2023-04-25T14:43:40;15.47;81.78
67799;SHT30;54596;43.216;27.904;2023-04-25T14:46:06;15.49;81.54
67799;SHT30;54596;43.216;27.904;2023-04-25T14:48:32;15.60;81.15
67799;SHT30;54596;43.216;27.904;2023-04-25T14:50:59;15.73;81.15
67799;SHT30;54596;43.216;27.904;2023-04-25T14:53:25;15.85;80.85
67799;SHT30;54596;43.216;27.904;2023-04-25T14:55:52;15.93;80.51
67799;SHT30;54596;43.216;27.904;2023-04-25T14:58:17;16.01;80.29
67799;SHT30;54596;43.216;27.904;2023-04-25T15:00:43;16.00;80.05
67799;SHT30;54596;43.216;27.904;2023-04-25T15:03:09;16.00;80.13
67799;SHT30;54596;43.216;27.904;2023-04-25T15:05:37;15.97;80.28
67799;SHT30;54596;43.216;27.904;2023-04-25T15:08:02;15.97;80.41
67799;SHT30;54596;43.216;27.904;2023-04-25T15:10:28;15.93;80.72
67799;SHT30;54596;43.216;27.904;2023-04-25T15:12:54;15.93;81.78
67799;SHT30;54596;43.216;27.904;2023-04-25T15:15:19;15.90;82.23
67799;SHT30;54596;43.216;27.904;2023-04-25T15:17:45;15.81;81.68
67799;SHT30;54596;43.216;27.904;2023-04-25T15:20:12;15.83;81.88
67799;SHT30;54596;43.216;27.904;2023-04-25T15:22:42;15.81;81.79